createdAt,value
2022-08-20T00:00:22.478Z,19.70
2022-08-20T00:03:30.451Z,19.70
2022-08-20T00:06:35.214Z,19.70
2022-08-20T00:09:41.596Z,19.70
2022-08-20T00:12:49.125Z,19.80
2022-08-20T00:15:53.670Z,19.70
2022-08-20T00:18:59.704Z,19.70
2022-08-20T00:22:04.761Z,19.70
2022-08-20T00:25:09.834Z,19.70
2022-08-20T00:28:14.847Z,19.70
2022-08-20T00:31:22.588Z,19.70
2022-08-20T00:34:27.976Z,19.70
2022-08-20T00:37:32.490Z,19.60
2022-08-20T00:40:38.960Z,19.60
2022-08-20T00:43:49.030Z,19.50
2022-08-20T00:46:54.289Z,19.60
2022-08-20T00:49:58.808Z,19.60
2022-08-20T00:53:07.590Z,19.50
2022-08-20T00:56:13.511Z,19.50
2022-08-20T00:59:23.697Z,19.50
2022-08-20T01:02:30.314Z,19.50
2022-08-20T01:05:35.892Z,19.50
2022-08-20T01:08:42.619Z,19.50
2022-08-20T01:11:47.524Z,19.50
2022-08-20T01:14:52.957Z,19.40
2022-08-20T01:18:00.427Z,19.50
2022-08-20T01:21:06.732Z,19.50
2022-08-20T01:24:25.077Z,19.40
2022-08-20T01:27:30.893Z,19.40
2022-08-20T01:30:38.327Z,19.40
2022-08-20T01:33:44.261Z,19.30
2022-08-20T01:36:53.350Z,19.30
2022-08-20T01:39:58.719Z,19.30
2022-08-20T01:43:06.094Z,19.30
2022-08-20T01:46:11.648Z,19.40
2022-08-20T01:49:24.755Z,19.40
2022-08-20T01:52:41.337Z,19.40
2022-08-20T01:55:46.471Z,19.40
2022-08-20T01:58:56.047Z,19.40
2022-08-20T02:02:04.574Z,19.40
2022-08-20T02:05:10.682Z,19.40
2022-08-20T02:08:15.110Z,19.40
2022-08-20T02:11:20.252Z,19.40
2022-08-20T02:14:26.780Z,19.40
2022-08-20T02:17:31.446Z,19.40
2022-08-20T02:20:37.444Z,19.40
2022-08-20T02:23:42.370Z,19.40
2022-08-20T02:26:47.618Z,19.40
2022-08-20T02:29:53.126Z,19.40
2022-08-20T02:32:58.493Z,19.40
2022-08-20T02:36:03.858Z,19.40
2022-08-20T02:39:10.791Z,19.40
2022-08-20T02:42:15.306Z,19.30
2022-08-20T02:45:22.473Z,19.40
2022-08-20T02:48:27.538Z,19.30
2022-08-20T02:51:33.394Z,19.30
2022-08-20T02:54:38.050Z,19.40
2022-08-20T02:57:43.603Z,19.30
2022-08-20T03:00:49.182Z,19.40
2022-08-20T03:03:54.754Z,19.30
2022-08-20T03:06:59.494Z,19.40
2022-08-20T03:10:04.363Z,19.40
2022-08-20T03:13:12.384Z,19.30
2022-08-20T03:16:17.239Z,19.30
2022-08-20T03:19:23.058Z,19.30
2022-08-20T03:22:27.998Z,19.30
2022-08-20T03:25:33.236Z,19.30
2022-08-20T03:28:37.799Z,19.30
2022-08-20T03:31:42.221Z,19.30
2022-08-20T03:34:46.844Z,19.30
2022-08-20T03:37:51.930Z,19.30
2022-08-20T03:40:56.437Z,19.30
2022-08-20T03:44:00.809Z,19.30
2022-08-20T03:47:07.885Z,19.20
2022-08-20T03:50:14.705Z,19.20
2022-08-20T03:53:32.048Z,19.20
2022-08-20T03:56:36.858Z,19.20
2022-08-20T03:59:42.897Z,19.20
2022-08-20T04:02:47.608Z,19.20
2022-08-20T04:05:52.355Z,19.20
2022-08-20T04:08:57.234Z,19.20
2022-08-20T04:12:02.167Z,19.20
2022-08-20T04:15:15.469Z,19.20
2022-08-20T04:18:24.161Z,19.20
2022-08-20T04:21:29.673Z,19.20
2022-08-20T04:24:37.340Z,19.20
2022-08-20T04:27:41.673Z,19.20
2022-08-20T04:30:51.702Z,19.30
2022-08-20T04:33:56.759Z,19.30
2022-08-20T04:37:01.190Z,19.30
2022-08-20T04:40:28.022Z,19.30
2022-08-20T04:43:35.174Z,19.30
2022-08-20T04:46:40.063Z,19.40
2022-08-20T04:49:45.878Z,19.40
2022-08-20T04:52:50.683Z,19.40
2022-08-20T04:55:55.762Z,19.50
2022-08-20T04:59:01.032Z,19.50
2022-08-20T05:02:05.377Z,19.50
2022-08-20T05:05:11.052Z,19.60
2022-08-20T05:08:19.992Z,19.50
2022-08-20T05:11:34.081Z,19.50
2022-08-20T05:14:42.225Z,19.50
2022-08-20T05:17:47.314Z,19.50
2022-08-20T05:20:52.672Z,19.40
2022-08-20T05:23:57.017Z,19.50
2022-08-20T05:27:01.575Z,19.50
2022-08-20T05:30:13.644Z,19.50
2022-08-20T05:33:20.651Z,19.50
2022-08-20T05:36:24.999Z,19.60
2022-08-20T05:39:30.407Z,19.60
2022-08-20T05:42:37.559Z,19.70
2022-08-20T05:45:43.901Z,19.70
2022-08-20T05:48:48.818Z,19.90
2022-08-20T05:51:53.556Z,20.00
2022-08-20T05:54:57.814Z,20.20
2022-08-20T05:58:04.510Z,20.20
2022-08-20T06:01:09.278Z,20.40
2022-08-20T06:04:26.866Z,20.40
2022-08-20T06:07:31.841Z,20.50
2022-08-20T06:10:38.537Z,20.60
2022-08-20T06:13:47.099Z,20.60
2022-08-20T06:16:57.861Z,20.50
2022-08-20T06:20:07.806Z,20.50
2022-08-20T06:23:13.277Z,20.50
2022-08-20T06:26:28.942Z,20.50
2022-08-20T06:29:36.395Z,20.30
2022-08-20T06:32:41.107Z,20.20
2022-08-20T06:35:45.559Z,20.30
2022-08-20T06:38:50.050Z,20.30
2022-08-20T06:41:56.151Z,20.30
2022-08-20T06:45:04.974Z,20.30
2022-08-20T06:48:15.323Z,20.40
2022-08-20T06:51:21.763Z,20.30
2022-08-20T06:54:28.663Z,20.30
2022-08-20T06:57:35.414Z,20.30
2022-08-20T07:00:42.383Z,20.40
2022-08-20T07:03:55.032Z,20.40
2022-08-20T07:07:01.799Z,20.50
2022-08-20T07:10:09.290Z,20.60
2022-08-20T07:13:15.669Z,20.70
2022-08-20T07:16:20.206Z,20.80
2022-08-20T07:19:24.620Z,20.80
2022-08-20T07:22:29.063Z,20.90
2022-08-20T07:25:34.017Z,20.90
2022-08-20T07:28:38.240Z,20.80
2022-08-20T07:32:01.232Z,20.90
2022-08-20T07:35:12.221Z,21.20
2022-08-20T07:38:26.297Z,21.30
2022-08-20T07:41:30.957Z,21.40
2022-08-20T07:44:35.239Z,21.70
2022-08-20T07:47:43.284Z,21.70
2022-08-20T07:50:49.993Z,21.40
2022-08-20T07:53:54.711Z,21.10
2022-08-20T07:57:04.514Z,20.90
2022-08-20T08:00:11.568Z,21.00
2022-08-20T08:03:16.620Z,21.00
2022-08-20T08:06:30.554Z,21.00
2022-08-20T08:09:36.073Z,21.30
2022-08-20T08:12:47.453Z,21.40
2022-08-20T08:15:51.819Z,21.20
2022-08-20T08:18:56.866Z,21.40
2022-08-20T08:22:01.220Z,21.50
2022-08-20T08:25:06.195Z,21.70
2022-08-20T08:28:14.257Z,21.80
2022-08-20T08:31:18.650Z,21.70
2022-08-20T08:34:25.275Z,21.70
2022-08-20T08:37:31.004Z,21.80
2022-08-20T08:40:35.207Z,21.80
2022-08-20T08:43:40.157Z,21.80
2022-08-20T08:46:49.563Z,22.20
2022-08-20T08:49:56.062Z,22.30
2022-08-20T08:53:02.666Z,22.30
2022-08-20T08:56:08.353Z,22.60
2022-08-20T08:59:13.174Z,22.60
2022-08-20T09:02:23.188Z,22.80
2022-08-20T09:05:41.237Z,23.90
2022-08-20T09:08:51.079Z,24.40
2022-08-20T09:12:02.393Z,25.10
2022-08-20T09:15:07.278Z,24.60
2022-08-20T09:18:11.767Z,25.00
2022-08-20T09:21:16.164Z,25.30
2022-08-20T09:24:20.722Z,25.50
2022-08-20T09:27:25.106Z,25.80
2022-08-20T09:30:29.404Z,26.30
2022-08-20T09:33:33.839Z,26.30
2022-08-20T09:36:38.291Z,25.40
2022-08-20T09:39:43.351Z,26.00
2022-08-20T09:42:47.923Z,25.90
2022-08-20T09:45:52.602Z,26.10
2022-08-20T09:48:57.029Z,26.40
2022-08-20T09:52:01.762Z,26.40
2022-08-20T09:55:26.252Z,27.40
2022-08-20T09:58:33.637Z,26.50
2022-08-20T10:01:38.515Z,27.30
2022-08-20T10:04:42.968Z,27.90
2022-08-20T10:07:47.271Z,27.20
2022-08-20T10:10:52.205Z,26.70
2022-08-20T10:13:57.154Z,26.60
2022-08-20T10:17:03.293Z,26.60
2022-08-20T10:20:10.718Z,26.80
2022-08-20T10:23:15.267Z,27.00
2022-08-20T10:26:19.890Z,27.40
2022-08-20T10:29:26.047Z,27.60
2022-08-20T10:32:30.745Z,28.10
2022-08-20T10:35:35.107Z,28.50
2022-08-20T10:38:40.048Z,28.40
2022-08-20T10:41:44.814Z,28.70
2022-08-20T10:44:49.619Z,29.30
2022-08-20T10:47:54.044Z,29.60
2022-08-20T10:50:58.511Z,29.30
2022-08-20T10:54:06.316Z,28.90
2022-08-20T10:57:20.009Z,28.20
2022-08-20T11:00:24.825Z,27.90
2022-08-20T11:03:29.302Z,27.80
2022-08-20T11:06:33.773Z,27.70
2022-08-20T11:09:38.706Z,27.50
2022-08-20T11:12:45.550Z,27.60
2022-08-20T11:15:50.939Z,27.80
2022-08-20T11:18:55.507Z,28.50
2022-08-20T11:21:59.974Z,29.20
2022-08-20T11:25:06.086Z,29.40
2022-08-20T11:28:10.813Z,29.70
2022-08-20T11:31:15.754Z,30.50
2022-08-20T11:34:20.323Z,30.40
2022-08-20T11:37:25.449Z,30.20
2022-08-20T11:40:30.621Z,30.00
2022-08-20T11:43:35.386Z,30.30
2022-08-20T11:46:39.961Z,30.70
2022-08-20T11:49:44.338Z,30.90
2022-08-20T11:52:49.317Z,30.60
2022-08-20T11:55:53.980Z,29.80
2022-08-20T11:58:58.431Z,29.90
2022-08-20T12:02:03.686Z,30.40
2022-08-20T12:05:09.578Z,30.50
2022-08-20T12:08:25.221Z,30.30
2022-08-20T12:11:32.265Z,29.90
2022-08-20T12:14:36.673Z,28.40
2022-08-20T12:17:41.215Z,28.80
2022-08-20T12:20:45.546Z,30.70
2022-08-20T12:23:49.995Z,31.00
2022-08-20T12:26:54.351Z,32.00
2022-08-20T12:30:01.830Z,31.50
2022-08-20T12:33:06.391Z,31.60
2022-08-20T12:36:11.101Z,30.70
2022-08-20T12:39:15.795Z,30.60
2022-08-20T12:42:20.938Z,31.00
2022-08-20T12:45:25.722Z,30.10
2022-08-20T12:48:30.057Z,28.70
2022-08-20T12:51:34.484Z,28.00
2022-08-20T12:54:39.016Z,27.60
2022-08-20T12:57:49.812Z,27.60
2022-08-20T13:00:54.447Z,27.40
2022-08-20T13:03:58.881Z,27.50
2022-08-20T13:07:04.308Z,27.40
2022-08-20T13:10:12.256Z,27.00
2022-08-20T13:13:20.608Z,27.10
2022-08-20T13:16:25.749Z,27.20
2022-08-20T13:19:31.463Z,26.60
2022-08-20T13:22:36.455Z,26.70
2022-08-20T13:25:41.166Z,27.30
2022-08-20T13:28:45.483Z,27.80
2022-08-20T13:31:49.903Z,27.80
2022-08-20T13:34:54.175Z,29.30
2022-08-20T13:37:58.453Z,29.00
2022-08-20T13:41:03.024Z,27.60
2022-08-20T13:44:07.672Z,27.40
2022-08-20T13:47:28.148Z,28.10
2022-08-20T13:50:32.761Z,27.40
2022-08-20T13:53:37.230Z,27.60
2022-08-20T13:56:41.963Z,27.80
2022-08-20T13:59:49.469Z,28.00
2022-08-20T14:02:54.138Z,28.70
2022-08-20T14:06:00.874Z,29.90
2022-08-20T14:09:05.343Z,30.20
2022-08-20T14:12:11.343Z,28.90
2022-08-20T14:15:16.783Z,29.30
2022-08-20T14:18:21.356Z,29.30
2022-08-20T14:21:25.814Z,30.40
2022-08-20T14:24:30.226Z,30.10
2022-08-20T14:27:36.111Z,29.80
2022-08-20T14:30:41.851Z,29.80
2022-08-20T14:33:46.132Z,29.80
2022-08-20T14:36:50.404Z,28.60
2022-08-20T14:39:57.856Z,27.60
2022-08-20T14:43:02.136Z,27.10
2022-08-20T14:46:06.386Z,26.80
2022-08-20T14:49:10.959Z,26.00
2022-08-20T14:52:17.030Z,26.70
2022-08-20T14:55:25.773Z,28.50
2022-08-20T14:58:30.224Z,27.50
2022-08-20T15:01:34.616Z,26.90
2022-08-20T15:04:40.870Z,27.80
2022-08-20T15:07:48.999Z,28.70
2022-08-20T15:10:56.062Z,28.90
2022-08-20T15:14:00.306Z,29.80
2022-08-20T15:17:04.762Z,28.80
2022-08-20T15:20:20.351Z,29.30
2022-08-20T15:23:25.238Z,29.60
2022-08-20T15:26:29.720Z,29.50
2022-08-20T15:29:34.298Z,29.20
2022-08-20T15:32:38.942Z,29.60
2022-08-20T15:35:43.363Z,31.00
2022-08-20T15:38:47.778Z,32.00
2022-08-20T15:41:52.160Z,31.10
2022-08-20T15:44:56.619Z,30.90
2022-08-20T15:48:15.167Z,29.00
2022-08-20T15:51:23.044Z,27.80
2022-08-20T15:54:29.699Z,26.50
2022-08-20T15:57:59.324Z,26.40
2022-08-20T16:01:25.140Z,25.60
2022-08-20T16:04:52.064Z,25.20
2022-08-20T16:08:00.867Z,24.60
2022-08-20T16:11:27.249Z,24.10
2022-08-20T16:14:37.950Z,24.30
2022-08-20T16:18:14.474Z,24.10
2022-08-20T16:21:42.626Z,24.00
2022-08-20T16:24:47.860Z,24.10
2022-08-20T16:28:03.010Z,23.80
2022-08-20T16:31:14.077Z,23.70
2022-08-20T16:34:34.624Z,23.50
2022-08-20T16:37:52.625Z,23.20
2022-08-20T16:41:06.996Z,23.10
2022-08-20T16:44:14.048Z,23.00
2022-08-20T16:47:21.331Z,22.90
2022-08-20T16:50:33.579Z,22.80
2022-08-20T16:53:38.951Z,22.60
2022-08-20T16:56:46.758Z,22.60
2022-08-20T16:59:59.257Z,22.60
2022-08-20T17:03:07.572Z,22.90
2022-08-20T17:06:37.004Z,23.00
2022-08-20T17:09:43.841Z,23.00
2022-08-20T17:13:00.849Z,22.90
2022-08-20T17:16:19.336Z,22.80
2022-08-20T17:19:30.704Z,22.60
2022-08-20T17:22:42.962Z,22.60
2022-08-20T17:26:01.009Z,22.60
2022-08-20T17:29:22.027Z,22.60
2022-08-20T17:32:29.017Z,22.50
2022-08-20T17:35:42.979Z,22.50
2022-08-20T17:38:52.708Z,22.40
2022-08-20T17:42:04.298Z,22.20
2022-08-20T17:45:15.468Z,22.20
2022-08-20T17:48:33.145Z,22.10
2022-08-20T17:51:45.993Z,22.00
2022-08-20T17:54:50.566Z,21.90
2022-08-20T17:57:59.337Z,21.90
2022-08-20T18:01:04.512Z,21.60
2022-08-20T18:04:14.109Z,21.50
2022-08-20T18:07:27.480Z,21.40
2022-08-20T18:10:42.187Z,21.40
2022-08-20T18:14:05.029Z,21.20
2022-08-20T18:17:28.115Z,21.20
2022-08-20T18:21:00.597Z,21.00
2022-08-20T18:24:12.097Z,20.90
2022-08-20T18:27:20.435Z,20.90
2022-08-20T18:30:26.622Z,20.80
2022-08-20T18:33:35.435Z,20.80
2022-08-20T18:36:40.010Z,20.70
2022-08-20T18:39:46.955Z,20.60
2022-08-20T18:42:51.283Z,20.50
2022-08-20T18:45:55.772Z,20.40
2022-08-20T18:49:03.367Z,20.40
2022-08-20T18:52:26.161Z,20.30
2022-08-20T18:55:32.622Z,20.20
2022-08-20T18:59:02.733Z,20.10
2022-08-20T19:02:22.082Z,20.00
2022-08-20T19:05:54.238Z,19.90
2022-08-20T19:09:29.276Z,19.80
2022-08-20T19:12:52.332Z,19.70
2022-08-20T19:16:05.851Z,19.60
2022-08-20T19:19:16.933Z,19.50
2022-08-20T19:22:21.545Z,19.50
2022-08-20T19:25:31.848Z,19.40
2022-08-20T19:28:44.306Z,19.30
2022-08-20T19:31:48.801Z,19.30
2022-08-20T19:34:59.824Z,19.30
2022-08-20T19:38:08.146Z,19.20
2022-08-20T19:41:20.204Z,19.10
2022-08-20T19:44:40.889Z,19.00
2022-08-20T19:48:27.576Z,19.10
2022-08-20T19:51:47.909Z,18.90
2022-08-20T19:55:00.013Z,18.80
2022-08-20T19:58:26.027Z,18.80
2022-08-20T20:01:32.159Z,18.70
2022-08-20T20:04:55.565Z,18.60
2022-08-20T20:08:04.523Z,18.50
2022-08-20T20:11:15.902Z,18.50
2022-08-20T20:14:22.995Z,18.50
2022-08-20T20:17:33.541Z,18.30
2022-08-20T20:20:55.820Z,18.20
2022-08-20T20:24:03.152Z,18.20
2022-08-20T20:27:20.293Z,18.10
2022-08-20T20:30:30.260Z,18.10
2022-08-20T20:33:43.379Z,18.00
2022-08-20T20:36:48.366Z,17.90
2022-08-20T20:40:02.395Z,17.80
2022-08-20T20:43:10.111Z,17.80
2022-08-20T20:46:20.378Z,17.70
2022-08-20T20:49:36.982Z,17.60
2022-08-20T20:52:51.357Z,17.50
2022-08-20T20:55:57.303Z,17.40
2022-08-20T20:59:06.507Z,17.40
2022-08-20T21:02:10.792Z,17.40
2022-08-20T21:05:16.406Z,17.40
2022-08-20T21:08:20.910Z,17.30
2022-08-20T21:11:25.378Z,17.30
2022-08-20T21:14:29.807Z,17.20
2022-08-20T21:17:34.046Z,17.30
2022-08-20T21:20:38.356Z,17.20
2022-08-20T21:23:42.994Z,17.20
2022-08-20T21:26:48.503Z,17.20
2022-08-20T21:29:53.880Z,17.10
2022-08-20T21:32:58.270Z,17.10
2022-08-20T21:36:03.166Z,17.10
2022-08-20T21:39:08.424Z,17.00
2022-08-20T21:42:28.551Z,17.00
2022-08-20T21:45:33.530Z,17.00
2022-08-20T21:48:38.855Z,17.00
2022-08-20T21:51:43.300Z,16.90
2022-08-20T21:54:47.726Z,16.80
2022-08-20T21:57:52.210Z,16.70
2022-08-20T22:01:03.524Z,16.70
2022-08-20T22:04:08.005Z,16.60
2022-08-20T22:07:12.363Z,16.60
2022-08-20T22:10:16.839Z,16.50
2022-08-20T22:13:22.877Z,16.50
2022-08-20T22:16:27.976Z,16.50
2022-08-20T22:19:32.511Z,16.40
2022-08-20T22:22:37.089Z,16.40
2022-08-20T22:25:41.786Z,16.40
2022-08-20T22:28:51.243Z,16.30
2022-08-20T22:31:55.778Z,16.30
2022-08-20T22:35:00.288Z,16.20
2022-08-20T22:38:04.518Z,16.10
2022-08-20T22:41:09.895Z,16.10
2022-08-20T22:44:14.857Z,16.00
2022-08-20T22:47:26.202Z,16.00
2022-08-20T22:50:30.741Z,16.00
2022-08-20T22:53:35.353Z,16.00
2022-08-20T22:56:40.860Z,15.90
2022-08-20T22:59:49.685Z,15.80
2022-08-20T23:02:59.597Z,15.80
2022-08-20T23:06:04.747Z,15.70
2022-08-20T23:09:12.837Z,15.60
2022-08-20T23:12:17.829Z,15.60
2022-08-20T23:15:22.283Z,15.50
2022-08-20T23:18:27.046Z,15.50
2022-08-20T23:21:31.263Z,15.40
2022-08-20T23:24:36.303Z,15.30
2022-08-20T23:27:44.758Z,15.40
2022-08-20T23:30:50.021Z,15.30
2022-08-20T23:33:54.587Z,15.20
2022-08-20T23:37:01.144Z,15.20
2022-08-20T23:40:06.968Z,15.10
2022-08-20T23:43:11.436Z,15.10
2022-08-20T23:46:15.906Z,15.10
2022-08-20T23:49:20.678Z,15.10
2022-08-20T23:52:24.739Z,15.00
2022-08-20T23:55:29.549Z,15.00
2022-08-20T23:58:33.943Z,15.00
